createdAt,value
2022-12-01T00:00:23.848Z,9.10
2022-12-01T00:01:23.845Z,9.10
2022-12-01T00:02:23.935Z,9.60
2022-12-01T00:03:23.904Z,9.70
2022-12-01T00:04:23.835Z,9.10
2022-12-01T00:05:23.800Z,8.80
2022-12-01T00:06:23.786Z,9.20
2022-12-01T00:07:23.836Z,8.10
2022-12-01T00:08:23.759Z,9.80
2022-12-01T00:09:23.771Z,9.10
2022-12-01T00:10:23.740Z,8.90
2022-12-01T00:11:23.731Z,9.70
2022-12-01T00:12:23.745Z,9.10
2022-12-01T00:13:23.720Z,9.40
2022-12-01T00:14:23.720Z,9.40
2022-12-01T00:15:23.690Z,9.00
2022-12-01T00:16:23.770Z,9.70
2022-12-01T00:17:23.689Z,10.60
2022-12-01T00:18:23.660Z,8.50
2022-12-01T00:19:23.649Z,10.10
2022-12-01T00:20:23.638Z,10.30
2022-12-01T00:21:23.626Z,10.20
2022-12-01T00:22:23.612Z,10.60
2022-12-01T00:23:23.637Z,8.40
2022-12-01T00:24:23.589Z,8.80
2022-12-01T00:25:23.581Z,9.70
2022-12-01T00:26:23.574Z,8.50
2022-12-01T00:27:23.558Z,9.10
2022-12-01T00:28:23.549Z,8.60
2022-12-01T00:29:23.559Z,8.40
2022-12-01T00:30:23.529Z,9.10
2022-12-01T00:31:23.611Z,9.10
2022-12-01T00:32:23.509Z,9.10
2022-12-01T00:33:23.528Z,9.00
2022-12-01T00:34:23.488Z,8.70
2022-12-01T00:35:23.472Z,8.60
2022-12-01T00:36:23.461Z,8.80
2022-12-01T00:37:23.451Z,8.80
2022-12-01T00:38:23.474Z,9.50
2022-12-01T00:39:23.433Z,9.10
2022-12-01T00:40:23.447Z,8.20
2022-12-01T00:41:23.413Z,9.80
2022-12-01T00:42:23.399Z,8.80
2022-12-01T00:43:23.391Z,8.60
2022-12-01T00:44:23.380Z,8.50
2022-12-01T00:45:23.370Z,9.20
2022-12-01T00:46:23.425Z,9.50
2022-12-01T00:47:23.348Z,9.00
2022-12-01T00:48:23.333Z,9.10
2022-12-01T00:49:23.329Z,8.50
2022-12-01T00:50:23.313Z,8.30
2022-12-01T00:51:23.302Z,8.80
2022-12-01T00:52:23.311Z,8.50
2022-12-01T00:53:23.341Z,8.10
2022-12-01T00:54:23.270Z,8.00
2022-12-01T00:55:23.280Z,9.30
2022-12-01T00:56:23.249Z,9.10
2022-12-01T00:57:23.240Z,8.60
2022-12-01T00:58:23.230Z,8.70
2022-12-01T00:59:23.221Z,8.80
2022-12-01T01:00:23.234Z,8.50
2022-12-01T01:01:23.264Z,8.70
2022-12-01T01:02:23.221Z,7.70
2022-12-01T01:03:23.189Z,8.80
2022-12-01T01:04:23.163Z,9.10
2022-12-01T01:05:23.155Z,9.90
2022-12-01T01:06:23.145Z,10.30
2022-12-01T01:07:23.225Z,10.10
2022-12-01T01:08:23.124Z,9.90
2022-12-01T01:09:23.113Z,9.50
2022-12-01T01:10:23.102Z,8.90
2022-12-01T01:11:23.112Z,8.80
2022-12-01T01:12:23.079Z,9.00
2022-12-01T01:13:23.071Z,9.60
2022-12-01T01:14:23.053Z,8.60
2022-12-01T01:15:23.042Z,9.00
2022-12-01T01:16:23.112Z,9.10
2022-12-01T01:17:23.045Z,8.40
2022-12-01T01:18:23.011Z,9.00
2022-12-01T01:19:23.002Z,7.70
2022-12-01T01:20:22.991Z,7.40
2022-12-01T01:21:23.035Z,8.70
2022-12-01T01:22:22.972Z,7.60
2022-12-01T01:23:22.963Z,7.80
2022-12-01T01:24:22.953Z,7.90
2022-12-01T01:25:22.940Z,7.90
2022-12-01T01:26:22.951Z,7.80
2022-12-01T01:27:22.914Z,7.40
2022-12-01T01:28:22.905Z,7.40
2022-12-01T01:29:22.893Z,8.60
2022-12-01T01:30:22.910Z,8.30
2022-12-01T01:31:22.961Z,9.70
2022-12-01T01:32:22.892Z,8.30
2022-12-01T01:33:22.892Z,8.60
2022-12-01T01:34:22.847Z,9.70
2022-12-01T01:35:22.836Z,9.90
2022-12-01T01:36:22.846Z,10.30
2022-12-01T01:37:22.812Z,9.90
2022-12-01T01:38:22.805Z,13.20
2022-12-01T01:39:22.789Z,14.20
2022-12-01T01:40:22.773Z,12.20
2022-12-01T01:41:22.771Z,10.30
2022-12-01T01:42:22.777Z,9.80
2022-12-01T01:43:22.752Z,9.10
2022-12-01T01:44:22.732Z,8.70
2022-12-01T01:45:22.724Z,8.50
2022-12-01T01:46:22.775Z,8.10
2022-12-01T01:47:22.724Z,7.50
2022-12-01T01:48:22.700Z,7.60
2022-12-01T01:49:22.685Z,7.60
2022-12-01T01:50:22.671Z,7.70
2022-12-01T01:51:22.663Z,7.50
2022-12-01T01:52:22.653Z,7.30
2022-12-01T01:53:22.663Z,7.20
2022-12-01T01:54:22.624Z,7.70
2022-12-01T01:55:22.636Z,7.30
2022-12-01T01:56:22.604Z,6.60
2022-12-01T01:57:22.593Z,6.50
2022-12-01T01:58:22.584Z,6.80
2022-12-01T01:59:22.573Z,7.20
2022-12-01T02:00:22.584Z,6.90
2022-12-01T02:01:22.623Z,6.70
2022-12-01T02:02:22.580Z,7.00
2022-12-01T02:03:22.554Z,7.10
2022-12-01T02:04:22.523Z,7.30
2022-12-01T02:05:22.513Z,6.70
2022-12-01T02:06:22.501Z,7.30
2022-12-01T02:07:22.522Z,8.60
2022-12-01T02:08:22.495Z,7.60
2022-12-01T02:09:22.464Z,7.80
2022-12-01T02:10:22.515Z,7.40
2022-12-01T02:11:22.442Z,7.10
2022-12-01T02:12:22.432Z,8.20
2022-12-01T02:13:22.443Z,8.00
2022-12-01T02:14:22.414Z,7.90
2022-12-01T02:15:22.404Z,8.50
2022-12-01T02:16:22.429Z,8.20
2022-12-01T02:17:22.384Z,7.90
2022-12-01T02:18:22.394Z,8.00
2022-12-01T02:19:22.362Z,8.80
2022-12-01T02:20:22.346Z,8.20
2022-12-01T02:21:22.335Z,7.00
2022-12-01T02:22:22.322Z,8.00
2022-12-01T02:23:22.324Z,7.20
2022-12-01T02:24:22.323Z,7.80
2022-12-01T02:25:22.295Z,7.80
2022-12-01T02:26:22.305Z,8.10
2022-12-01T02:27:22.274Z,7.80
2022-12-01T02:28:22.264Z,9.70
2022-12-01T02:29:22.253Z,8.40
2022-12-01T02:30:22.242Z,8.60
2022-12-01T02:31:22.293Z,7.70
2022-12-01T02:32:22.215Z,8.10
2022-12-01T02:33:22.213Z,8.50
2022-12-01T02:34:22.195Z,8.80
2022-12-01T02:35:22.185Z,7.50
2022-12-01T02:36:22.196Z,7.60
2022-12-01T02:37:22.164Z,7.60
2022-12-01T02:38:22.154Z,7.70
2022-12-01T02:39:22.143Z,7.70
2022-12-01T02:40:22.132Z,8.30
2022-12-01T02:41:22.125Z,8.60
2022-12-01T02:42:22.126Z,7.70
2022-12-01T02:43:22.095Z,7.90
2022-12-01T02:44:22.086Z,7.60
2022-12-01T02:45:22.076Z,7.90
2022-12-01T02:46:22.100Z,7.60
2022-12-01T02:47:22.075Z,7.50
2022-12-01T02:48:22.046Z,7.90
2022-12-01T02:49:22.036Z,8.60
2022-12-01T02:50:22.024Z,7.40
2022-12-01T02:51:22.014Z,7.30
2022-12-01T02:52:22.025Z,7.70
2022-12-01T02:53:21.995Z,7.80
2022-12-01T02:54:22.005Z,8.20
2022-12-01T02:55:21.966Z,7.90
2022-12-01T02:56:21.963Z,7.90
2022-12-01T02:57:21.945Z,7.70
2022-12-01T02:58:21.945Z,7.60
2022-12-01T02:59:21.931Z,8.40
2022-12-01T03:00:21.935Z,8.30
2022-12-01T03:01:21.969Z,8.00
2022-12-01T03:02:21.927Z,7.80
2022-12-01T03:03:21.885Z,7.90
2022-12-01T03:04:21.877Z,7.90
2022-12-01T03:05:21.883Z,7.70
2022-12-01T03:06:21.853Z,8.00
2022-12-01T03:07:21.929Z,8.00
2022-12-01T03:08:21.825Z,8.40
2022-12-01T03:09:21.821Z,7.60
2022-12-01T03:10:21.831Z,7.90
2022-12-01T03:11:21.796Z,7.80
2022-12-01T03:12:21.787Z,7.30
2022-12-01T03:13:21.779Z,8.50
2022-12-01T03:14:21.766Z,7.50
2022-12-01T03:15:21.751Z,7.60
2022-12-01T03:16:21.839Z,7.20
2022-12-01T03:17:21.727Z,8.90
2022-12-01T03:18:21.716Z,7.70
2022-12-01T03:19:21.710Z,8.80
2022-12-01T03:20:21.698Z,8.50
2022-12-01T03:21:21.686Z,8.20
2022-12-01T03:22:21.695Z,8.10
2022-12-01T03:23:21.666Z,7.40
2022-12-01T03:24:21.666Z,8.00
2022-12-01T03:25:21.645Z,7.70
2022-12-01T03:26:21.647Z,8.40
2022-12-01T03:27:21.618Z,8.10
2022-12-01T03:28:22.654Z,7.90
2022-12-01T03:29:21.598Z,8.10
2022-12-01T03:30:21.585Z,8.50
2022-12-01T03:31:21.678Z,8.40
2022-12-01T03:32:21.585Z,9.50
2022-12-01T03:33:21.559Z,12.80
2022-12-01T03:34:21.547Z,11.30
2022-12-01T03:35:21.536Z,12.70
2022-12-01T03:36:21.526Z,11.80
2022-12-01T03:37:21.535Z,11.50
2022-12-01T03:38:21.504Z,11.60
2022-12-01T03:39:21.486Z,11.00
2022-12-01T03:40:21.478Z,10.30
2022-12-01T03:41:21.472Z,11.90
2022-12-01T03:42:21.477Z,12.30
2022-12-01T03:43:21.447Z,13.70
2022-12-01T03:44:21.437Z,12.50
2022-12-01T03:45:21.426Z,13.30
2022-12-01T03:46:21.475Z,14.70
2022-12-01T03:47:21.429Z,14.10
2022-12-01T03:48:21.397Z,13.40
2022-12-01T03:49:21.381Z,12.60
2022-12-01T03:50:21.368Z,13.50
2022-12-01T03:51:21.358Z,12.90
2022-12-01T03:52:21.356Z,12.50
2022-12-01T03:53:21.370Z,11.00
2022-12-01T03:54:21.330Z,10.50
2022-12-01T03:55:21.317Z,10.10
2022-12-01T03:56:21.307Z,9.30
2022-12-01T03:57:21.296Z,8.10
2022-12-01T03:58:21.291Z,8.40
2022-12-01T03:59:21.297Z,8.30
2022-12-01T04:00:21.289Z,8.40
2022-12-01T04:01:21.298Z,8.90
2022-12-01T04:02:21.298Z,8.10
2022-12-01T04:03:21.227Z,8.60
2022-12-01T04:04:21.219Z,9.50
2022-12-01T04:05:25.137Z,10.20
2022-12-01T04:06:21.218Z,11.60
2022-12-01T04:07:21.204Z,11.30
2022-12-01T04:08:21.178Z,10.30
2022-12-01T04:09:21.168Z,10.30
2022-12-01T04:10:21.177Z,9.80
2022-12-01T04:11:21.140Z,9.50
2022-12-01T04:12:21.129Z,10.80
2022-12-01T04:13:21.119Z,10.30
2022-12-01T04:14:21.110Z,9.30
2022-12-01T04:15:21.119Z,9.00
2022-12-01T04:16:21.155Z,9.70
2022-12-01T04:17:21.079Z,10.30
2022-12-01T04:18:21.070Z,9.70
2022-12-01T04:19:21.056Z,9.70
2022-12-01T04:20:21.047Z,8.90
2022-12-01T04:21:21.056Z,9.00
2022-12-01T04:22:21.020Z,9.00
2022-12-01T04:23:21.030Z,10.60
2022-12-01T04:24:20.999Z,8.60
2022-12-01T04:25:20.991Z,9.00
2022-12-01T04:26:21.001Z,9.10
2022-12-01T04:27:20.968Z,8.50
2022-12-01T04:28:20.961Z,7.70
2022-12-01T04:29:20.950Z,9.10
2022-12-01T04:30:20.958Z,9.60
2022-12-01T04:31:20.972Z,8.50
2022-12-01T04:32:20.938Z,8.70
2022-12-01T04:33:20.910Z,8.70
2022-12-01T04:34:20.889Z,8.60
2022-12-01T04:35:20.882Z,9.10
2022-12-01T04:36:20.869Z,8.90
2022-12-01T04:37:20.883Z,8.60
2022-12-01T04:38:20.849Z,8.70
2022-12-01T04:39:20.839Z,8.40
2022-12-01T04:40:20.830Z,8.30
2022-12-01T04:41:20.822Z,9.30
2022-12-01T04:42:20.800Z,8.00
2022-12-01T04:43:20.822Z,8.80
2022-12-01T04:44:20.781Z,8.00
2022-12-01T04:45:20.802Z,9.00
2022-12-01T04:46:20.817Z,9.10
2022-12-01T04:47:20.749Z,7.90
2022-12-01T04:48:20.739Z,8.40
2022-12-01T04:49:20.751Z,8.90
2022-12-01T04:50:20.719Z,8.50
2022-12-01T04:51:20.710Z,8.80
2022-12-01T04:52:20.700Z,8.50
2022-12-01T04:53:20.710Z,9.00
2022-12-01T04:54:20.691Z,8.70
2022-12-01T04:55:20.661Z,7.90
2022-12-01T04:56:20.670Z,8.50
2022-12-01T04:57:20.647Z,9.70
2022-12-01T04:58:20.650Z,7.90
2022-12-01T04:59:20.640Z,7.60
2022-12-01T05:00:20.611Z,8.70
2022-12-01T05:01:20.689Z,8.50
2022-12-01T05:02:20.715Z,9.00
2022-12-01T05:03:20.581Z,10.00
2022-12-01T05:04:20.590Z,8.50
2022-12-01T05:05:20.554Z,8.60
2022-12-01T05:06:20.540Z,9.00
2022-12-01T05:07:20.555Z,8.40
2022-12-01T05:08:20.522Z,8.60
2022-12-01T05:09:20.532Z,8.70
2022-12-01T05:10:20.498Z,9.10
2022-12-01T05:11:20.494Z,8.90
2022-12-01T05:12:20.482Z,9.30
2022-12-01T05:13:20.461Z,8.70
2022-12-01T05:14:20.471Z,8.60
2022-12-01T05:15:20.443Z,8.80
2022-12-01T05:16:20.463Z,8.90
2022-12-01T05:17:20.429Z,9.40
2022-12-01T05:18:20.457Z,10.50
2022-12-01T05:19:20.451Z,10.70
2022-12-01T05:20:20.390Z,10.70
2022-12-01T05:21:20.385Z,10.40
2022-12-01T05:22:31.472Z,10.70
2022-12-01T05:23:21.353Z,11.30
2022-12-01T05:24:20.378Z,11.70
2022-12-01T05:25:20.333Z,10.20
2022-12-01T05:26:20.321Z,10.90
2022-12-01T05:27:20.311Z,11.40
2022-12-01T05:28:20.301Z,11.00
2022-12-01T05:29:20.291Z,11.00
2022-12-01T05:30:23.138Z,13.10
2022-12-01T05:31:21.282Z,13.80
2022-12-01T05:32:20.253Z,13.70
2022-12-01T05:33:20.262Z,12.20
2022-12-01T05:34:20.231Z,11.90
2022-12-01T05:35:20.226Z,11.80
2022-12-01T05:36:20.233Z,13.10
2022-12-01T05:37:20.205Z,12.60
2022-12-01T05:38:20.191Z,13.70
2022-12-01T05:39:20.183Z,12.90
2022-12-01T05:40:20.193Z,14.50
2022-12-01T05:41:20.181Z,13.40
2022-12-01T05:42:20.171Z,13.30
2022-12-01T05:43:25.276Z,13.50
2022-12-01T05:44:21.124Z,12.70
2022-12-01T05:45:20.152Z,11.30
2022-12-01T05:46:20.162Z,11.70
2022-12-01T05:47:20.092Z,12.80
2022-12-01T05:48:20.082Z,14.50
2022-12-01T05:49:20.073Z,13.90
2022-12-01T05:50:20.061Z,13.30
2022-12-01T05:51:20.074Z,13.90
2022-12-01T05:52:20.071Z,12.70
2022-12-01T05:53:20.031Z,12.30
2022-12-01T05:54:20.019Z,11.20
2022-12-01T05:55:20.003Z,11.40
2022-12-01T05:56:20.061Z,11.20
2022-12-01T05:57:19.995Z,10.50
2022-12-01T05:58:19.974Z,11.00
2022-12-01T05:59:19.976Z,11.30
2022-12-01T06:00:19.952Z,11.20
2022-12-01T06:01:19.972Z,10.50
2022-12-01T06:02:19.964Z,11.80
2022-12-01T06:03:19.923Z,8.60
2022-12-01T06:04:19.959Z,9.00
2022-12-01T06:05:19.895Z,10.90
2022-12-01T06:06:19.904Z,9.90
2022-12-01T06:07:19.951Z,9.70
2022-12-01T06:08:19.864Z,8.60
2022-12-01T06:09:19.853Z,8.80
2022-12-01T06:10:19.842Z,9.10
2022-12-01T06:11:19.859Z,8.90
2022-12-01T06:12:19.845Z,8.40
2022-12-01T06:13:19.813Z,8.40
2022-12-01T06:14:19.803Z,8.20
2022-12-01T06:15:19.787Z,8.60
2022-12-01T06:16:19.817Z,9.90
2022-12-01T06:17:19.764Z,9.30
2022-12-01T06:18:19.776Z,10.10
2022-12-01T06:19:19.746Z,9.30
2022-12-01T06:20:19.736Z,9.10
2022-12-01T06:21:19.723Z,8.70
2022-12-01T06:22:19.713Z,9.40
2022-12-01T06:23:19.724Z,7.90
2022-12-01T06:24:19.695Z,8.40
2022-12-01T06:25:19.683Z,9.00
2022-12-01T06:26:19.671Z,8.40
2022-12-01T06:27:19.655Z,7.80
2022-12-01T06:28:19.666Z,8.30
2022-12-01T06:29:19.633Z,8.30
2022-12-01T06:30:19.624Z,8.60
2022-12-01T06:31:19.672Z,8.10
2022-12-01T06:32:19.604Z,7.90
2022-12-01T06:33:19.617Z,6.90
2022-12-01T06:34:19.582Z,8.20
2022-12-01T06:35:19.578Z,7.90
2022-12-01T06:36:19.583Z,8.30
2022-12-01T06:37:19.545Z,7.80
2022-12-01T06:38:19.537Z,7.70
2022-12-01T06:39:19.526Z,7.20
2022-12-01T06:40:19.515Z,7.90
2022-12-01T06:41:19.526Z,7.60
2022-12-01T06:42:19.495Z,7.70
2022-12-01T06:43:19.485Z,7.60
2022-12-01T06:44:19.474Z,7.20
2022-12-01T06:45:19.486Z,8.10
2022-12-01T06:46:19.510Z,8.00
2022-12-01T06:47:19.445Z,8.00
2022-12-01T06:48:19.427Z,8.50
2022-12-01T06:49:19.416Z,10.60
2022-12-01T06:50:19.406Z,11.60
2022-12-01T06:51:19.415Z,9.20
2022-12-01T06:52:19.384Z,9.20
2022-12-01T06:53:19.403Z,8.90
2022-12-01T06:54:19.365Z,9.20
2022-12-01T06:55:19.356Z,10.10
2022-12-01T06:56:19.343Z,10.00
2022-12-01T06:57:19.334Z,10.30
2022-12-01T06:58:19.341Z,9.20
2022-12-01T06:59:19.307Z,8.20
2022-12-01T07:00:19.316Z,7.30
2022-12-01T07:01:19.347Z,7.10
2022-12-01T07:02:19.319Z,7.40
2022-12-01T07:03:19.286Z,7.40
2022-12-01T07:04:19.255Z,7.70
2022-12-01T07:05:19.246Z,10.40
2022-12-01T07:06:19.226Z,9.30
2022-12-01T07:07:19.235Z,8.20
2022-12-01T07:08:19.235Z,9.10
2022-12-01T07:09:19.196Z,8.50
2022-12-01T07:10:19.195Z,9.10
2022-12-01T07:11:19.178Z,10.20
2022-12-01T07:12:19.167Z,11.60
2022-12-01T07:13:19.155Z,13.20
2022-12-01T07:14:19.165Z,12.50
2022-12-01T07:15:19.135Z,13.60
2022-12-01T07:16:19.186Z,13.20
2022-12-01T07:17:19.119Z,11.30
2022-12-01T07:18:19.096Z,12.50
2022-12-01T07:19:19.089Z,9.80
2022-12-01T07:20:19.097Z,10.40
2022-12-01T07:21:19.067Z,10.50
2022-12-01T07:22:19.058Z,10.00
2022-12-01T07:23:19.045Z,10.60
2022-12-01T07:24:19.067Z,9.90
2022-12-01T07:25:19.027Z,9.50
2022-12-01T07:26:19.016Z,8.40
2022-12-01T07:27:19.007Z,8.50
2022-12-01T07:28:18.995Z,7.40
2022-12-01T07:29:18.979Z,8.70
2022-12-01T07:30:18.988Z,7.50
2022-12-01T07:31:19.032Z,7.50
2022-12-01T07:32:18.949Z,7.40
2022-12-01T07:33:18.937Z,7.60
2022-12-01T07:34:18.948Z,6.60
2022-12-01T07:35:18.917Z,7.50
2022-12-01T07:36:18.907Z,6.90
2022-12-01T07:37:18.896Z,7.50
2022-12-01T07:38:22.016Z,6.10
2022-12-01T07:39:18.890Z,6.80
2022-12-01T07:40:18.867Z,6.80
2022-12-01T07:41:18.848Z,6.80
2022-12-01T07:42:18.839Z,7.00
2022-12-01T07:43:18.826Z,6.80
2022-12-01T07:44:18.845Z,6.40
2022-12-01T07:45:18.837Z,7.00
2022-12-01T07:46:22.644Z,6.60
2022-12-01T07:47:18.787Z,6.30
2022-12-01T07:48:18.776Z,6.10
2022-12-01T07:49:18.786Z,6.60
2022-12-01T07:50:18.772Z,7.00
2022-12-01T07:51:18.752Z,6.70
2022-12-01T07:52:18.758Z,6.60
2022-12-01T07:53:18.719Z,6.80
2022-12-01T07:54:18.729Z,7.20
2022-12-01T07:55:18.717Z,6.20
2022-12-01T07:56:18.689Z,7.60
2022-12-01T07:57:18.678Z,6.40
2022-12-01T07:58:18.669Z,7.00
2022-12-01T07:59:18.657Z,6.80
2022-12-01T08:00:18.698Z,7.60
2022-12-01T08:01:18.666Z,7.50
2022-12-01T08:02:18.799Z,6.50
2022-12-01T08:03:18.622Z,7.10
2022-12-01T08:04:18.626Z,6.60
2022-12-01T08:05:18.588Z,7.60
2022-12-01T08:06:18.579Z,7.20
2022-12-01T08:07:18.567Z,7.60
2022-12-01T08:08:18.641Z,6.80
2022-12-01T08:09:18.569Z,7.30
2022-12-01T08:10:18.545Z,7.30
2022-12-01T08:11:18.531Z,7.20
2022-12-01T08:12:18.519Z,7.10
2022-12-01T08:13:18.508Z,8.00
2022-12-01T08:14:18.502Z,7.90
2022-12-01T08:15:18.498Z,7.50
2022-12-01T08:16:18.481Z,7.90
2022-12-01T08:17:18.457Z,7.60
2022-12-01T08:18:18.451Z,8.60
2022-12-01T08:19:18.458Z,7.80
2022-12-01T08:20:22.437Z,9.20
2022-12-01T08:21:19.420Z,9.20
2022-12-01T08:22:18.411Z,9.30
2022-12-01T08:23:18.410Z,9.60
2022-12-01T08:24:18.409Z,9.00
2022-12-01T08:25:18.370Z,9.80
2022-12-01T08:26:18.359Z,10.50
2022-12-01T08:27:18.348Z,10.20
2022-12-01T08:28:18.357Z,11.60
2022-12-01T08:29:20.413Z,11.00
2022-12-01T08:30:18.339Z,11.80
2022-12-01T08:31:18.341Z,12.10
2022-12-01T08:32:18.301Z,11.90
2022-12-01T08:33:18.291Z,11.30
2022-12-01T08:34:18.277Z,11.10
2022-12-01T08:35:18.261Z,10.90
2022-12-01T08:36:18.284Z,12.50
2022-12-01T08:37:18.240Z,13.00
2022-12-01T08:38:18.257Z,10.80
2022-12-01T08:39:18.219Z,11.50
2022-12-01T08:40:18.220Z,11.10
2022-12-01T08:41:18.203Z,10.90
2022-12-01T08:42:18.189Z,12.00
2022-12-01T08:43:49.720Z,11.50
2022-12-01T08:44:19.218Z,11.10
2022-12-01T08:45:18.162Z,12.60
2022-12-01T08:46:18.234Z,12.50
2022-12-01T08:47:19.017Z,12.00
2022-12-01T08:48:18.121Z,12.20
2022-12-01T08:49:18.143Z,12.20
2022-12-01T08:50:18.101Z,12.20
2022-12-01T08:51:18.089Z,11.80
2022-12-01T08:52:18.100Z,11.90
2022-12-01T08:53:18.069Z,12.00
2022-12-01T08:54:18.080Z,12.30
2022-12-01T08:55:18.051Z,11.50
2022-12-01T08:56:18.047Z,11.30
2022-12-01T08:57:18.020Z,11.60
2022-12-01T08:58:18.015Z,12.10
2022-12-01T08:59:18.021Z,11.90
2022-12-01T09:00:17.989Z,11.70
2022-12-01T09:01:18.031Z,12.10
2022-12-01T09:02:17.990Z,12.40
2022-12-01T09:03:18.028Z,11.40
2022-12-01T09:04:17.948Z,13.20
2022-12-01T09:05:17.960Z,12.60
2022-12-01T09:06:17.928Z,12.40
2022-12-01T09:07:21.532Z,12.90
2022-12-01T09:08:19.149Z,12.10
2022-12-01T09:09:17.911Z,13.00
2022-12-01T09:10:17.887Z,12.10
2022-12-01T09:11:17.869Z,12.90
2022-12-01T09:12:17.859Z,12.20
2022-12-01T09:13:17.870Z,12.30
2022-12-01T09:14:17.859Z,12.50
2022-12-01T09:15:17.828Z,12.80
2022-12-01T09:16:17.901Z,12.60
2022-12-01T09:17:17.815Z,12.50
2022-12-01T09:18:17.792Z,13.00
2022-12-01T09:19:23.630Z,12.90
2022-12-01T09:20:18.774Z,12.50
2022-12-01T09:21:17.760Z,13.80
2022-12-01T09:22:17.752Z,13.80
2022-12-01T09:23:17.767Z,12.70
2022-12-01T09:24:17.753Z,12.10
2022-12-01T09:25:17.721Z,11.90
2022-12-01T09:26:17.712Z,13.20
2022-12-01T09:27:17.698Z,11.80
2022-12-01T09:28:17.709Z,12.50
2022-12-01T09:29:17.679Z,12.30
2022-12-01T09:30:17.663Z,11.50
2022-12-01T09:31:17.949Z,12.90
2022-12-01T09:32:17.662Z,12.20
2022-12-01T09:33:17.631Z,12.60
2022-12-01T09:34:17.621Z,13.20
2022-12-01T09:35:22.026Z,13.50
2022-12-01T09:36:18.600Z,12.40
2022-12-01T09:37:17.585Z,12.40
2022-12-01T09:38:17.582Z,13.20
2022-12-01T09:39:17.570Z,14.20
2022-12-01T09:40:17.579Z,13.10
2022-12-01T09:41:17.542Z,13.10
2022-12-01T09:42:17.534Z,13.20
2022-12-01T09:43:17.521Z,14.10
2022-12-01T09:44:17.512Z,13.70
2022-12-01T09:45:17.521Z,13.90
2022-12-01T09:46:17.520Z,14.40
2022-12-01T09:47:17.483Z,14.20
2022-12-01T09:48:17.471Z,14.00
2022-12-01T09:49:17.459Z,13.80
2022-12-01T09:50:17.473Z,15.20
2022-12-01T09:51:17.433Z,13.60
2022-12-01T09:52:17.423Z,14.10
2022-12-01T09:53:17.414Z,14.60
2022-12-01T09:54:17.401Z,13.90
2022-12-01T09:55:17.395Z,14.60
2022-12-01T09:56:17.404Z,14.10
2022-12-01T09:57:17.393Z,15.00
2022-12-01T09:58:17.373Z,13.80
2022-12-01T09:59:17.353Z,16.80
2022-12-01T10:00:17.346Z,13.80
2022-12-01T10:01:17.415Z,15.00
2022-12-01T10:02:17.404Z,14.50
2022-12-01T10:03:17.304Z,16.70
2022-12-01T10:04:17.303Z,14.70
2022-12-01T10:05:17.356Z,14.50
2022-12-01T10:06:32.763Z,14.50
2022-12-01T10:07:18.262Z,15.50
2022-12-01T10:08:18.563Z,15.10
2022-12-01T10:09:17.243Z,15.20
2022-12-01T10:10:17.253Z,14.90
2022-12-01T10:11:17.222Z,15.70
2022-12-01T10:12:17.239Z,13.80
2022-12-01T10:13:17.201Z,15.20
2022-12-01T10:14:20.227Z,15.20
2022-12-01T10:15:17.204Z,15.10
2022-12-01T10:16:17.212Z,15.20
2022-12-01T10:17:17.155Z,14.70
2022-12-01T10:18:17.189Z,14.50
2022-12-01T10:19:17.135Z,13.50
2022-12-01T10:20:17.128Z,15.40
2022-12-01T10:21:17.158Z,13.90
2022-12-01T10:22:17.104Z,14.00
2022-12-01T10:23:17.093Z,15.60
2022-12-01T10:24:17.084Z,15.30
2022-12-01T10:25:17.072Z,15.10
2022-12-01T10:26:17.061Z,15.50
2022-12-01T10:27:17.064Z,15.20
2022-12-01T10:28:17.045Z,15.10
2022-12-01T10:29:17.026Z,15.50
2022-12-01T10:30:17.014Z,15.00
2022-12-01T10:31:17.042Z,15.60
2022-12-01T10:32:17.016Z,14.50
2022-12-01T10:33:17.004Z,15.90
2022-12-01T10:34:16.978Z,16.20
2022-12-01T10:35:16.966Z,15.60
2022-12-01T10:36:16.954Z,16.60
2022-12-01T10:37:16.962Z,16.00
2022-12-01T10:38:16.955Z,14.70
2022-12-01T10:39:16.944Z,16.10
2022-12-01T10:40:16.917Z,15.20
2022-12-01T10:41:16.906Z,15.20
2022-12-01T10:42:16.886Z,14.60
2022-12-01T10:43:16.905Z,15.50
2022-12-01T10:44:16.868Z,15.40
2022-12-01T10:45:16.855Z,15.30
2022-12-01T10:46:16.943Z,15.60
2022-12-01T10:47:16.843Z,16.10
2022-12-01T10:48:16.832Z,14.80
2022-12-01T10:49:16.835Z,16.60
2022-12-01T10:50:16.946Z,15.20
2022-12-01T10:51:16.852Z,14.90
2022-12-01T10:52:16.785Z,15.50
2022-12-01T10:53:16.776Z,15.20
2022-12-01T10:54:16.787Z,15.60
2022-12-01T10:55:16.775Z,15.60
2022-12-01T10:56:16.747Z,15.90
2022-12-01T10:57:16.726Z,15.20
2022-12-01T10:58:16.724Z,15.10
2022-12-01T10:59:16.709Z,15.80
2022-12-01T11:00:43.022Z,16.80
2022-12-01T11:01:17.728Z,15.80
2022-12-01T11:02:17.172Z,14.90
2022-12-01T11:03:21.388Z,15.30
2022-12-01T11:04:17.677Z,16.20
2022-12-01T11:05:16.649Z,14.80
2022-12-01T11:06:16.637Z,15.70
2022-12-01T11:07:16.627Z,15.70
2022-12-01T11:08:16.618Z,15.90
2022-12-01T11:09:20.204Z,16.40
2022-12-01T11:10:17.616Z,15.70
2022-12-01T11:11:16.587Z,16.20
2022-12-01T11:12:16.581Z,16.00
2022-12-01T11:13:16.564Z,16.60
2022-12-01T11:14:16.550Z,15.90
2022-12-01T11:15:16.566Z,16.70
2022-12-01T11:16:16.579Z,15.80
2022-12-01T11:17:16.533Z,16.70
2022-12-01T11:18:16.507Z,15.50
2022-12-01T11:19:20.393Z,16.20
2022-12-01T11:20:17.552Z,15.90
2022-12-01T11:21:16.477Z,15.90
2022-12-01T11:22:16.472Z,16.40
2022-12-01T11:23:16.459Z,15.50
2022-12-01T11:24:16.446Z,16.40
2022-12-01T11:25:16.459Z,15.00
2022-12-01T11:26:16.457Z,15.10
2022-12-01T11:27:16.416Z,16.20
2022-12-01T11:28:16.407Z,14.90
2022-12-01T11:29:16.402Z,15.50
2022-12-01T11:30:16.378Z,15.80
2022-12-01T11:31:16.433Z,15.60
2022-12-01T11:32:16.451Z,15.20
2022-12-01T11:33:16.357Z,14.90
2022-12-01T11:34:16.365Z,15.30
2022-12-01T11:35:16.327Z,15.40
2022-12-01T11:36:16.447Z,15.20
2022-12-01T11:37:16.336Z,16.30
2022-12-01T11:38:31.578Z,14.90
2022-12-01T11:39:17.289Z,14.30
2022-12-01T11:40:16.278Z,15.10
2022-12-01T11:41:16.270Z,14.60
2022-12-01T11:42:16.299Z,14.80
2022-12-01T11:43:16.248Z,15.00
2022-12-01T11:44:43.125Z,16.10
2022-12-01T11:45:17.228Z,13.80
2022-12-01T11:46:16.284Z,14.90
2022-12-01T11:47:23.033Z,14.30
2022-12-01T11:48:17.190Z,15.00
2022-12-01T11:49:16.180Z,14.40
2022-12-01T11:50:16.171Z,14.20
2022-12-01T11:51:16.189Z,15.30
2022-12-01T11:52:16.151Z,13.80
2022-12-01T11:53:16.148Z,14.90
2022-12-01T11:54:16.133Z,13.20
2022-12-01T11:55:16.118Z,14.60
2022-12-01T11:56:16.111Z,14.60
2022-12-01T11:57:33.611Z,13.30
2022-12-01T11:58:17.111Z,14.40
2022-12-01T11:59:16.078Z,14.50
2022-12-01T12:00:16.072Z,13.60
2022-12-01T12:01:20.523Z,14.10
2022-12-01T12:02:17.110Z,13.90
2022-12-01T12:03:16.061Z,14.60
2022-12-01T12:04:16.029Z,12.90
2022-12-01T12:05:16.063Z,13.30
2022-12-01T12:06:39.499Z,13.70
2022-12-01T12:07:17.011Z,13.50
2022-12-01T12:08:15.980Z,14.10
2022-12-01T12:09:16.015Z,13.70
2022-12-01T12:10:15.969Z,12.90
2022-12-01T12:11:16.000Z,14.40
2022-12-01T12:12:15.975Z,13.10
2022-12-01T12:13:15.933Z,14.00
2022-12-01T12:14:15.941Z,13.60
2022-12-01T12:15:15.911Z,14.00
2022-12-01T12:16:15.900Z,14.20
2022-12-01T12:17:15.960Z,13.40
2022-12-01T12:18:15.879Z,13.70
2022-12-01T12:19:15.871Z,13.60
2022-12-01T12:20:16.493Z,14.20
2022-12-01T12:21:15.853Z,14.80
2022-12-01T12:22:15.831Z,14.40
2022-12-01T12:23:15.851Z,14.20
2022-12-01T12:24:15.810Z,13.30
2022-12-01T12:25:15.806Z,13.90
2022-12-01T12:26:15.791Z,13.90
2022-12-01T12:27:15.783Z,13.40
2022-12-01T12:28:15.810Z,14.10
2022-12-01T12:29:15.771Z,12.80
2022-12-01T12:30:15.755Z,13.20
2022-12-01T12:31:15.781Z,13.50
2022-12-01T12:32:15.732Z,14.10
2022-12-01T12:33:15.722Z,13.90
2022-12-01T12:34:15.731Z,14.00
2022-12-01T12:35:15.701Z,13.60
2022-12-01T12:36:15.720Z,13.10
2022-12-01T12:37:15.680Z,13.30
2022-12-01T12:38:15.670Z,12.70
2022-12-01T12:39:16.926Z,14.10
2022-12-01T12:40:15.643Z,13.90
2022-12-01T12:41:15.634Z,14.10
2022-12-01T12:42:15.622Z,12.90
2022-12-01T12:43:15.613Z,13.00
2022-12-01T12:44:15.601Z,13.00
2022-12-01T12:45:15.615Z,13.90
2022-12-01T12:46:15.644Z,13.50
2022-12-01T12:47:15.583Z,12.60
2022-12-01T12:48:15.561Z,13.40
2022-12-01T12:49:20.153Z,13.60
2022-12-01T12:50:16.613Z,12.90
2022-12-01T12:51:15.532Z,13.00
2022-12-01T12:52:15.515Z,13.40
2022-12-01T12:53:15.503Z,13.30
2022-12-01T12:54:15.559Z,13.90
2022-12-01T12:55:15.508Z,12.90
2022-12-01T12:56:15.481Z,13.60
2022-12-01T12:57:15.465Z,13.50
2022-12-01T12:58:15.453Z,13.30
2022-12-01T12:59:15.443Z,13.90
2022-12-01T13:00:15.569Z,13.00
2022-12-01T13:01:15.487Z,13.20
2022-12-01T13:02:15.462Z,13.00
2022-12-01T13:03:15.403Z,12.70
2022-12-01T13:04:15.392Z,13.80
2022-12-01T13:05:15.379Z,12.90